createdAt,value
2023-01-13T00:00:16.517Z,35.78
2023-01-13T00:02:43.623Z,35.40
2023-01-13T00:05:11.073Z,32.50
2023-01-13T00:07:40.282Z,31.00
2023-01-13T00:10:11.250Z,36.05
2023-01-13T00:12:42.392Z,32.92
2023-01-13T00:15:10.692Z,29.60
2023-01-13T00:17:38.999Z,34.72
2023-01-13T00:20:07.261Z,27.23
2023-01-13T00:22:35.475Z,29.75
2023-01-13T00:25:04.501Z,30.35
2023-01-13T00:27:31.750Z,32.78
2023-01-13T00:29:59.635Z,30.40
2023-01-13T00:32:27.328Z,27.67
2023-01-13T00:34:54.460Z,31.40
2023-01-13T00:37:21.909Z,31.02
2023-01-13T00:39:48.844Z,33.58
2023-01-13T00:42:35.925Z,34.22
2023-01-13T00:45:03.024Z,35.80
2023-01-13T00:47:30.171Z,33.40
2023-01-13T00:49:57.037Z,30.55
2023-01-13T00:52:23.948Z,30.75
2023-01-13T00:54:50.790Z,33.70
2023-01-13T00:57:18.878Z,33.58
2023-01-13T00:59:46.185Z,29.85
2023-01-13T01:02:13.510Z,29.85
2023-01-13T01:04:40.527Z,27.13
2023-01-13T01:07:07.361Z,30.55
2023-01-13T01:09:34.775Z,33.65
2023-01-13T01:12:01.920Z,31.67
2023-01-13T01:14:29.057Z,29.50
2023-01-13T01:16:55.931Z,31.65
2023-01-13T01:19:22.895Z,29.42
2023-01-13T01:21:49.785Z,30.70
2023-01-13T01:24:16.837Z,31.45
2023-01-13T01:26:43.812Z,34.80
2023-01-13T01:29:14.663Z,33.20
2023-01-13T01:31:41.866Z,31.80
2023-01-13T01:34:08.904Z,31.27
2023-01-13T01:36:36.717Z,34.20
2023-01-13T01:39:04.785Z,32.83
2023-01-13T01:41:33.888Z,32.50
2023-01-13T01:44:39.448Z,32.03
2023-01-13T01:47:06.381Z,34.37
2023-01-13T01:49:35.471Z,29.40
2023-01-13T01:52:17.571Z,34.92
2023-01-13T01:54:55.112Z,37.60
2023-01-13T01:57:49.130Z,34.28
2023-01-13T02:00:16.319Z,36.08
2023-01-13T02:02:46.460Z,31.90
2023-01-13T02:05:14.092Z,36.58
2023-01-13T02:07:43.644Z,39.67
2023-01-13T02:10:13.941Z,36.17
2023-01-13T02:12:43.439Z,31.90
2023-01-13T02:15:10.480Z,33.53
2023-01-13T02:18:03.885Z,35.37
2023-01-13T02:21:07.931Z,32.87
2023-01-13T02:24:14.640Z,36.63
2023-01-13T02:27:00.161Z,32.60
2023-01-13T02:30:11.441Z,35.85
2023-01-13T02:32:44.196Z,32.93
2023-01-13T02:35:24.474Z,34.78
2023-01-13T02:37:53.492Z,35.83
2023-01-13T02:40:24.580Z,39.13
2023-01-13T02:43:33.164Z,44.22
2023-01-13T02:46:15.587Z,46.97
2023-01-13T02:48:45.941Z,45.00
2023-01-13T02:51:20.114Z,49.03
2023-01-13T02:54:06.698Z,43.83
2023-01-13T02:56:39.541Z,53.63
2023-01-13T02:59:06.936Z,43.50
2023-01-13T03:01:33.865Z,46.37
2023-01-13T03:04:12.229Z,42.97
2023-01-13T03:06:49.161Z,42.23
2023-01-13T03:09:38.534Z,42.13
2023-01-13T03:12:34.868Z,41.58
2023-01-13T03:15:17.436Z,41.95
2023-01-13T03:18:12.446Z,40.05
2023-01-13T03:20:47.855Z,34.27
2023-01-13T03:23:59.971Z,33.80
2023-01-13T03:26:36.902Z,40.90
2023-01-13T03:29:18.138Z,42.08
2023-01-13T03:31:55.197Z,39.80
2023-01-13T03:34:29.694Z,35.63
2023-01-13T03:37:02.325Z,40.27
2023-01-13T03:39:35.011Z,51.47
2023-01-13T03:42:07.934Z,51.93
2023-01-13T03:44:52.497Z,40.65
2023-01-13T03:47:44.823Z,40.50
2023-01-13T03:50:20.560Z,39.67
2023-01-13T03:52:55.454Z,43.50
2023-01-13T03:55:27.830Z,45.73
2023-01-13T03:58:15.246Z,48.87
2023-01-13T04:01:05.543Z,38.80
2023-01-13T04:03:55.493Z,39.90
2023-01-13T04:06:44.614Z,42.22
2023-01-13T04:09:33.502Z,45.55
2023-01-13T04:12:12.196Z,50.53
2023-01-13T04:14:39.526Z,44.80
2023-01-13T04:17:06.406Z,50.25
2023-01-13T04:19:33.239Z,50.97
2023-01-13T04:22:00.168Z,48.20
2023-01-13T04:24:27.054Z,47.43
2023-01-13T04:26:54.045Z,46.83
2023-01-13T04:29:22.953Z,49.27
2023-01-13T04:31:49.780Z,50.10
2023-01-13T04:34:16.678Z,47.53
2023-01-13T04:36:45.046Z,52.03
2023-01-13T04:39:11.949Z,52.57
2023-01-13T04:41:57.139Z,48.35
2023-01-13T04:44:24.283Z,42.67
2023-01-13T04:46:51.448Z,48.95
2023-01-13T04:51:45.540Z,41.73
2023-01-13T04:54:12.453Z,50.37
2023-01-13T04:56:39.595Z,47.90
2023-01-13T04:59:06.768Z,51.10
2023-01-13T05:01:34.258Z,47.85
2023-01-13T05:04:01.177Z,54.83
2023-01-13T05:06:28.623Z,50.42
2023-01-13T05:08:55.461Z,54.03
2023-01-13T05:11:41.734Z,50.50
2023-01-13T05:14:27.729Z,46.40
2023-01-13T05:17:03.766Z,47.50
2023-01-13T05:19:34.105Z,50.75
2023-01-13T05:22:21.049Z,42.80
2023-01-13T05:25:06.852Z,48.47
2023-01-13T05:27:35.227Z,51.25
2023-01-13T05:30:02.041Z,60.83
2023-01-13T05:32:29.367Z,61.83
2023-01-13T05:34:57.013Z,55.22
2023-01-13T05:37:24.594Z,53.50
2023-01-13T05:40:10.431Z,54.30
2023-01-13T05:42:56.373Z,53.90
2023-01-13T05:45:24.571Z,49.17
2023-01-13T05:47:51.451Z,54.95
2023-01-13T05:50:19.047Z,54.47
2023-01-13T05:52:46.135Z,63.40
2023-01-13T05:55:13.388Z,61.63
2023-01-13T05:57:40.551Z,64.35
2023-01-13T06:00:08.160Z,62.17
2023-01-13T06:02:41.329Z,57.87
2023-01-13T06:05:08.751Z,61.73
2023-01-13T06:07:35.715Z,62.70
2023-01-13T06:10:02.516Z,54.00
2023-01-13T06:12:29.363Z,58.27
2023-01-13T06:14:56.799Z,60.53
2023-01-13T06:17:23.769Z,54.77
2023-01-13T06:19:51.247Z,52.63
2023-01-13T06:22:23.903Z,58.17
2023-01-13T06:24:53.745Z,59.87
2023-01-13T06:27:22.087Z,59.23
2023-01-13T06:29:49.723Z,60.73
2023-01-13T06:32:21.313Z,63.43
2023-01-13T06:34:55.106Z,70.80
2023-01-13T06:37:25.512Z,81.70
2023-01-13T06:39:58.832Z,67.87
2023-01-13T06:42:50.794Z,65.33
2023-01-13T06:45:18.743Z,65.97
2023-01-13T06:47:45.617Z,82.63
2023-01-13T06:50:13.143Z,76.50
2023-01-13T06:52:39.977Z,89.87
2023-01-13T06:55:07.246Z,106.40
2023-01-13T06:57:34.130Z,98.87
2023-01-13T07:00:01.061Z,95.27
2023-01-13T07:02:28.419Z,82.87
2023-01-13T07:04:55.433Z,80.17
2023-01-13T07:07:23.559Z,77.97
2023-01-13T07:09:50.401Z,63.40
2023-01-13T07:12:17.494Z,69.77
2023-01-13T07:15:03.761Z,62.17
2023-01-13T07:17:31.107Z,82.18
2023-01-13T07:19:58.128Z,86.97
2023-01-13T07:22:25.271Z,80.97
2023-01-13T07:24:52.209Z,88.37
2023-01-13T07:27:19.047Z,73.07
2023-01-13T07:29:45.886Z,66.35
2023-01-13T07:32:12.783Z,70.57
2023-01-13T07:34:39.647Z,50.08
2023-01-13T07:37:06.590Z,48.47
2023-01-13T07:39:33.419Z,55.80
2023-01-13T07:42:19.123Z,54.55
2023-01-13T07:44:45.994Z,50.47
2023-01-13T07:47:12.897Z,44.75
2023-01-13T07:49:39.905Z,56.05
2023-01-13T07:52:06.864Z,50.90
2023-01-13T07:54:40.649Z,60.35
2023-01-13T07:57:09.267Z,51.13
2023-01-13T07:59:36.276Z,43.92
2023-01-13T08:02:03.582Z,45.15
2023-01-13T08:04:30.514Z,50.30
2023-01-13T08:09:24.040Z,49.00
2023-01-13T08:12:14.447Z,50.10
2023-01-13T08:14:41.426Z,49.08
2023-01-13T08:17:09.369Z,46.58
2023-01-13T08:19:36.406Z,55.17
2023-01-13T08:22:03.344Z,42.92
2023-01-13T08:24:30.354Z,46.72
2023-01-13T08:26:57.216Z,47.25
2023-01-13T08:29:27.222Z,50.28
2023-01-13T08:31:54.214Z,52.13
2023-01-13T08:34:21.181Z,42.28
2023-01-13T08:36:50.007Z,39.97
2023-01-13T08:39:16.913Z,44.20
2023-01-13T08:41:56.371Z,42.75
2023-01-13T08:44:26.067Z,42.58
2023-01-13T08:46:53.645Z,45.92
2023-01-13T08:49:20.898Z,43.67
2023-01-13T08:51:48.284Z,46.28
2023-01-13T08:54:16.112Z,48.33
2023-01-13T08:56:44.333Z,47.47
2023-01-13T08:59:16.687Z,53.65
2023-01-13T09:01:44.261Z,49.65
2023-01-13T09:04:19.614Z,44.83
2023-01-13T09:06:47.749Z,50.22
2023-01-13T09:09:14.643Z,39.95
2023-01-13T09:12:06.140Z,44.13
2023-01-13T09:14:34.955Z,42.70
2023-01-13T09:17:02.333Z,43.47
2023-01-13T09:19:29.670Z,39.17
2023-01-13T09:21:57.533Z,32.67
2023-01-13T09:24:25.373Z,32.05
2023-01-13T09:26:53.239Z,38.38
2023-01-13T09:29:20.406Z,40.25
2023-01-13T09:31:47.567Z,30.50
2023-01-13T09:34:38.467Z,32.17
2023-01-13T09:37:07.307Z,30.98
2023-01-13T09:39:35.564Z,24.52
2023-01-13T09:42:43.232Z,37.47
2023-01-13T09:45:21.661Z,27.45
2023-01-13T09:47:57.815Z,27.65
2023-01-13T09:50:48.235Z,34.20
2023-01-13T09:53:21.714Z,33.83
2023-01-13T09:55:49.068Z,29.48
2023-01-13T09:58:18.594Z,34.33
2023-01-13T10:01:10.185Z,31.65
2023-01-13T10:03:37.125Z,35.05
2023-01-13T10:06:10.484Z,29.70
2023-01-13T10:08:42.993Z,28.90
2023-01-13T10:11:34.307Z,26.90
2023-01-13T10:14:15.930Z,30.05
2023-01-13T10:16:54.894Z,27.55
2023-01-13T10:19:27.710Z,25.23
2023-01-13T10:22:15.554Z,26.33
2023-01-13T10:27:34.593Z,31.15
2023-01-13T10:30:17.669Z,25.75
2023-01-13T10:32:54.037Z,23.55
2023-01-13T10:35:55.167Z,19.35
2023-01-13T10:38:44.099Z,31.35
2023-01-13T10:41:14.331Z,20.85
2023-01-13T10:44:04.664Z,24.65
2023-01-13T10:46:35.722Z,24.75
2023-01-13T10:49:21.174Z,27.98
2023-01-13T10:51:49.610Z,26.33
2023-01-13T10:54:22.667Z,23.40
2023-01-13T10:56:51.227Z,19.55
2023-01-13T10:59:22.921Z,21.00
2023-01-13T11:01:58.101Z,21.40
2023-01-13T11:04:37.789Z,21.55
2023-01-13T11:07:21.743Z,23.05
2023-01-13T11:09:48.883Z,35.78
2023-01-13T11:12:34.469Z,27.77
2023-01-13T11:15:09.000Z,24.52
2023-01-13T11:17:45.744Z,28.85
2023-01-13T11:20:17.568Z,25.33
2023-01-13T11:22:49.432Z,34.67
2023-01-13T11:25:44.715Z,31.17
2023-01-13T11:28:25.836Z,26.38
2023-01-13T11:31:05.752Z,26.48
2023-01-13T11:33:42.016Z,36.35
2023-01-13T11:36:16.369Z,28.53
2023-01-13T11:38:49.833Z,25.77
2023-01-13T11:41:41.336Z,34.33
2023-01-13T11:44:22.178Z,32.88
2023-01-13T11:46:52.359Z,34.08
2023-01-13T11:49:29.876Z,36.28
2023-01-13T11:52:19.235Z,38.88
2023-01-13T11:55:17.935Z,34.67
2023-01-13T11:57:50.944Z,41.40
2023-01-13T12:00:36.838Z,36.65
2023-01-13T12:03:23.342Z,38.88
2023-01-13T12:06:12.531Z,33.35
2023-01-13T12:08:57.984Z,28.17
2023-01-13T12:11:24.801Z,23.02
2023-01-13T12:14:24.710Z,22.90
2023-01-13T12:16:51.634Z,25.02
2023-01-13T12:19:49.270Z,22.63
2023-01-13T12:22:23.635Z,23.80
2023-01-13T12:25:29.392Z,30.02
2023-01-13T12:28:05.085Z,25.42
2023-01-13T12:30:45.707Z,22.33
2023-01-13T12:33:19.605Z,23.02
2023-01-13T12:35:59.485Z,22.08
2023-01-13T12:38:34.576Z,22.60
2023-01-13T12:41:38.849Z,27.50
2023-01-13T12:44:17.155Z,26.77
2023-01-13T12:46:59.000Z,30.42
2023-01-13T12:49:28.436Z,26.83
2023-01-13T12:51:55.255Z,25.83
2023-01-13T12:54:31.153Z,25.67
2023-01-13T12:56:59.209Z,27.95
2023-01-13T12:59:25.954Z,25.08
2023-01-13T13:04:52.019Z,23.75
2023-01-13T13:07:42.287Z,23.85
2023-01-13T13:10:16.489Z,23.85
2023-01-13T13:13:01.946Z,25.20
2023-01-13T13:15:35.469Z,28.70
2023-01-13T13:18:17.430Z,24.65
2023-01-13T13:20:58.049Z,30.50
2023-01-13T13:23:38.121Z,37.65
2023-01-13T13:26:17.184Z,23.73
2023-01-13T13:29:06.962Z,24.15
2023-01-13T13:31:58.612Z,21.98
2023-01-13T13:34:32.242Z,26.17
2023-01-13T13:37:05.115Z,27.02
2023-01-13T13:39:51.851Z,18.65
2023-01-13T13:42:48.424Z,22.20
2023-01-13T13:45:40.420Z,23.23
2023-01-13T13:48:23.294Z,27.05
2023-01-13T13:51:01.501Z,24.85
2023-01-13T13:53:32.544Z,31.90
2023-01-13T13:56:01.805Z,30.00
2023-01-13T13:58:31.439Z,28.95
2023-01-13T14:01:00.371Z,30.38
2023-01-13T14:03:30.393Z,29.45
2023-01-13T14:05:59.964Z,22.95
2023-01-13T14:08:37.994Z,25.02
2023-01-13T14:11:28.855Z,28.10
2023-01-13T14:14:07.163Z,33.63
2023-01-13T14:16:37.823Z,31.15
2023-01-13T14:19:04.691Z,31.13
2023-01-13T14:21:31.973Z,27.80
2023-01-13T14:24:16.865Z,31.05
2023-01-13T14:26:44.242Z,29.55
2023-01-13T14:29:18.055Z,37.55
2023-01-13T14:31:45.734Z,41.30
2023-01-13T14:34:32.113Z,40.60
2023-01-13T14:37:01.539Z,43.45
2023-01-13T14:39:41.241Z,54.05
2023-01-13T14:42:14.096Z,49.83
2023-01-13T14:44:45.759Z,48.38
2023-01-13T14:47:23.849Z,44.15
2023-01-13T14:50:04.616Z,43.17
2023-01-13T14:52:35.324Z,47.05
2023-01-13T14:55:11.293Z,46.38
2023-01-13T14:57:41.496Z,43.60
2023-01-13T15:00:14.735Z,49.70
2023-01-13T15:03:05.377Z,41.13
2023-01-13T15:05:36.393Z,41.15
2023-01-13T15:08:17.508Z,41.03
2023-01-13T15:11:00.959Z,50.92
2023-01-13T15:13:51.493Z,47.42
2023-01-13T15:16:25.967Z,44.72
2023-01-13T15:18:54.941Z,45.90
2023-01-13T15:21:21.973Z,56.30
2023-01-13T15:23:49.535Z,56.03
2023-01-13T15:26:26.724Z,51.25
2023-01-13T15:28:56.396Z,57.88
2023-01-13T15:31:25.000Z,50.78
2023-01-13T15:33:51.866Z,58.58
2023-01-13T15:36:23.935Z,44.63
2023-01-13T15:38:51.408Z,52.60
2023-01-13T15:41:38.355Z,44.97
2023-01-13T15:44:24.143Z,46.40
2023-01-13T15:46:52.122Z,50.42
2023-01-13T15:49:21.665Z,44.90
2023-01-13T15:51:49.547Z,40.63
2023-01-13T15:54:16.554Z,41.83
2023-01-13T15:56:43.579Z,41.40
2023-01-13T15:59:17.968Z,40.72
2023-01-13T16:01:48.185Z,44.72
2023-01-13T16:04:15.110Z,43.67
2023-01-13T16:06:42.968Z,50.35
2023-01-13T16:09:14.107Z,61.65
2023-01-13T16:11:41.394Z,54.55
2023-01-13T16:14:08.288Z,50.78
2023-01-13T16:16:36.640Z,51.45
2023-01-13T16:19:03.539Z,49.60
2023-01-13T16:21:30.531Z,53.38
2023-01-13T16:23:57.398Z,60.03
2023-01-13T16:26:30.055Z,57.42
2023-01-13T16:28:57.850Z,47.45
2023-01-13T16:31:32.100Z,51.80
2023-01-13T16:34:03.554Z,46.80
2023-01-13T16:36:33.502Z,51.63
2023-01-13T16:39:01.002Z,51.03
2023-01-13T16:41:28.050Z,51.45
2023-01-13T16:43:55.135Z,43.03
2023-01-13T16:46:27.411Z,63.00
2023-01-13T16:48:56.843Z,43.63
2023-01-13T16:51:24.881Z,59.25
2023-01-13T16:53:51.899Z,55.80
2023-01-13T16:56:23.917Z,56.55
2023-01-13T16:58:52.853Z,58.53
2023-01-13T17:01:28.677Z,57.03
2023-01-13T17:03:57.079Z,57.47
2023-01-13T17:06:41.770Z,54.17
2023-01-13T17:09:20.248Z,58.95
2023-01-13T17:11:47.164Z,57.47
2023-01-13T17:14:18.850Z,54.05
2023-01-13T17:16:47.763Z,44.63
2023-01-13T17:19:15.598Z,48.50
2023-01-13T17:21:42.474Z,47.97
2023-01-13T17:24:11.166Z,47.70
2023-01-13T17:26:42.253Z,66.68
2023-01-13T17:29:28.146Z,60.78
2023-01-13T17:31:55.379Z,54.78
2023-01-13T17:34:22.420Z,51.67
2023-01-13T17:36:50.540Z,58.77
2023-01-13T17:39:23.683Z,55.25
2023-01-13T17:41:52.130Z,53.08
2023-01-13T17:44:21.342Z,53.75
2023-01-13T17:46:49.020Z,61.53
2023-01-13T17:49:19.267Z,57.05
2023-01-13T17:51:48.337Z,55.42
2023-01-13T17:54:15.732Z,53.03
2023-01-13T17:56:44.363Z,56.15
2023-01-13T17:59:12.683Z,55.55
2023-01-13T18:01:40.821Z,63.10
2023-01-13T18:04:13.840Z,50.20
2023-01-13T18:06:41.599Z,82.10
2023-01-13T18:09:08.483Z,83.20
2023-01-13T18:11:35.497Z,85.47
2023-01-13T18:14:02.863Z,86.67
2023-01-13T18:16:32.181Z,84.88
2023-01-13T18:19:19.533Z,85.43
2023-01-13T18:22:06.480Z,61.65
2023-01-13T18:24:53.361Z,96.93
2023-01-13T18:27:27.657Z,112.00
2023-01-13T18:29:59.469Z,128.23
2023-01-13T18:32:32.766Z,141.83
2023-01-13T18:35:07.061Z,125.20
2023-01-13T18:37:42.422Z,140.10
2023-01-13T18:40:13.197Z,150.90
2023-01-13T18:42:55.208Z,144.83
2023-01-13T18:45:29.061Z,149.27
2023-01-13T18:47:59.652Z,136.17
2023-01-13T18:50:28.476Z,133.37
2023-01-13T18:52:58.753Z,137.67
2023-01-13T18:55:25.864Z,144.13
2023-01-13T18:57:53.652Z,150.63
2023-01-13T19:00:21.623Z,136.20
2023-01-13T19:02:50.907Z,139.00
2023-01-13T19:05:18.141Z,122.07
2023-01-13T19:07:50.578Z,115.53
2023-01-13T19:10:18.718Z,115.67
2023-01-13T19:12:45.791Z,98.33
2023-01-13T19:15:12.843Z,93.83
2023-01-13T19:17:39.785Z,106.83
2023-01-13T19:20:07.453Z,96.73
2023-01-13T19:22:35.302Z,95.83
2023-01-13T19:25:03.399Z,96.23
2023-01-13T19:27:31.411Z,100.03
2023-01-13T19:30:00.717Z,104.07
2023-01-13T19:32:30.969Z,97.53
2023-01-13T19:34:59.946Z,104.43
2023-01-13T19:37:31.623Z,102.70
2023-01-13T19:39:59.444Z,102.40
2023-01-13T19:42:45.681Z,118.83
2023-01-13T19:45:26.612Z,110.93
2023-01-13T19:47:55.554Z,106.57
2023-01-13T19:50:23.027Z,102.30
2023-01-13T19:52:49.968Z,101.30
2023-01-13T19:55:16.977Z,98.77
2023-01-13T19:57:43.842Z,92.90
2023-01-13T20:00:12.474Z,87.53
2023-01-13T20:02:44.949Z,87.47
2023-01-13T20:05:15.332Z,101.67
2023-01-13T20:07:42.181Z,118.03
2023-01-13T20:10:09.525Z,112.33
2023-01-13T20:12:36.775Z,115.37
2023-01-13T20:15:03.948Z,118.63
2023-01-13T20:17:30.856Z,119.87
2023-01-13T20:19:59.113Z,115.40
2023-01-13T20:22:25.936Z,106.67
2023-01-13T20:27:24.081Z,99.90
2023-01-13T20:29:51.547Z,111.07
2023-01-13T20:32:18.450Z,108.03
2023-01-13T20:34:45.395Z,106.97
2023-01-13T20:37:12.495Z,116.73
2023-01-13T20:39:41.401Z,125.30
2023-01-13T20:42:29.038Z,121.37
2023-01-13T20:44:57.156Z,151.73
2023-01-13T20:47:24.389Z,118.43
2023-01-13T20:49:51.866Z,128.97
2023-01-13T20:52:18.758Z,148.23
2023-01-13T20:54:45.856Z,139.90
2023-01-13T20:57:13.636Z,146.43
2023-01-13T20:59:40.761Z,142.47
2023-01-13T21:02:13.220Z,136.40
2023-01-13T21:04:40.582Z,138.90
2023-01-13T21:07:08.476Z,143.30
2023-01-13T21:09:35.790Z,151.23
2023-01-13T21:12:21.716Z,146.93
2023-01-13T21:15:07.315Z,141.77
2023-01-13T21:17:53.057Z,150.20
2023-01-13T21:20:20.233Z,140.33
2023-01-13T21:22:49.128Z,145.57
2023-01-13T21:25:17.493Z,152.53
2023-01-13T21:27:44.476Z,163.90
2023-01-13T21:30:14.979Z,161.20
2023-01-13T21:32:43.819Z,163.40
2023-01-13T21:35:11.915Z,153.93
2023-01-13T21:37:40.226Z,148.27
2023-01-13T21:40:10.256Z,147.33
2023-01-13T21:42:55.917Z,147.60
2023-01-13T21:45:41.303Z,147.53
2023-01-13T21:48:08.329Z,138.20
2023-01-13T21:50:38.178Z,136.03
2023-01-13T21:53:05.415Z,153.60
2023-01-13T21:55:32.957Z,137.60
2023-01-13T21:58:20.086Z,135.47
2023-01-13T22:00:49.309Z,153.38
2023-01-13T22:03:18.395Z,153.37
2023-01-13T22:05:46.294Z,194.13
2023-01-13T22:08:13.696Z,222.40
2023-01-13T22:10:59.575Z,211.43
2023-01-13T22:13:47.531Z,220.43
2023-01-13T22:16:14.932Z,224.43
2023-01-13T22:18:41.789Z,249.73
2023-01-13T22:21:08.796Z,205.33
2023-01-13T22:23:35.730Z,207.40
2023-01-13T22:26:03.929Z,187.63
2023-01-13T22:28:44.070Z,172.73
2023-01-13T22:31:13.745Z,164.53
2023-01-13T22:33:41.494Z,182.97
2023-01-13T22:36:09.919Z,176.20
2023-01-13T22:38:36.984Z,187.50
2023-01-13T22:41:09.113Z,168.27
2023-01-13T22:43:37.783Z,164.70
2023-01-13T22:46:08.650Z,113.90
2023-01-13T22:48:36.019Z,98.93
2023-01-13T22:51:11.389Z,105.00
2023-01-13T22:53:38.699Z,117.93
2023-01-13T22:56:06.652Z,134.97
2023-01-13T22:58:33.712Z,114.57
2023-01-13T23:01:12.007Z,121.17
2023-01-13T23:03:39.151Z,135.93
2023-01-13T23:06:06.567Z,136.40
2023-01-13T23:08:34.579Z,132.70
2023-01-13T23:11:10.002Z,137.10
2023-01-13T23:13:40.302Z,131.13
2023-01-13T23:16:10.092Z,138.77
2023-01-13T23:18:37.348Z,122.60
2023-01-13T23:21:06.530Z,133.90
2023-01-13T23:23:34.328Z,148.90
2023-01-13T23:26:01.611Z,123.00
2023-01-13T23:28:28.564Z,137.57
2023-01-13T23:30:55.549Z,134.53
2023-01-13T23:33:22.575Z,134.90
2023-01-13T23:36:00.800Z,109.97
2023-01-13T23:38:28.751Z,91.57
2023-01-13T23:40:56.391Z,92.13
2023-01-13T23:43:23.621Z,106.13
2023-01-13T23:45:50.558Z,100.60
2023-01-13T23:48:18.779Z,124.57
2023-01-13T23:50:56.787Z,106.37
2023-01-13T23:53:24.087Z,103.07
2023-01-13T23:55:57.272Z,104.97
2023-01-13T23:58:24.198Z,135.10
